sensor_id;sensor_type;location;lat;lon;timestamp;temperature;humidity
36924;DHT22;22841;50.252;18.688;2022-07-26T00:02:23;19.20;99.90
36924;DHT22;22841;50.252;18.688;2022-07-26T00:04:49;19.20;99.90
36924;DHT22;22841;50.252;18.688;2022-07-26T00:07:15;19.20;99.90
36924;DHT22;22841;50.252;18.688;2022-07-26T00:09:41;19.10;99.90
36924;DHT22;22841;50.252;18.688;2022-07-26T00:12:08;19.20;99.90
36924;DHT22;22841;50.252;18.688;2022-07-26T00:14:35;19.20;1.00
36924;DHT22;22841;50.252;18.688;2022-07-26T00:17:03;19.30;39.70
36924;DHT22;22841;50.252;18.688;2022-07-26T00:19:29;19.20;1.00
36924;DHT22;22841;50.252;18.688;2022-07-26T00:21:55;19.30;44.90
36924;DHT22;22841;50.252;18.688;2022-07-26T00:24:41;19.20;90.40
36924;DHT22;22841;50.252;18.688;2022-07-26T00:27:07;19.20;99.90
36924;DHT22;22841;50.252;18.688;2022-07-26T00:29:34;19.10;1.00
36924;DHT22;22841;50.252;18.688;2022-07-26T00:32:00;19.10;1.00
36924;DHT22;22841;50.252;18.688;2022-07-26T00:34:26;19.00;1.00
36924;DHT22;22841;50.252;18.688;2022-07-26T00:36:52;19.00;25.90
36924;DHT22;22841;50.252;18.688;2022-07-26T00:39:18;18.90;99.90
36924;DHT22;22841;50.252;18.688;2022-07-26T00:41:44;18.90;99.90
36924;DHT22;22841;50.252;18.688;2022-07-26T00:44:11;18.70;99.90
36924;DHT22;22841;50.252;18.688;2022-07-26T00:46:42;18.60;99.90
36924;DHT22;22841;50.252;18.688;2022-07-26T00:49:09;18.70;99.90
36924;DHT22;22841;50.252;18.688;2022-07-26T00:51:36;18.80;99.90
36924;DHT22;22841;50.252;18.688;2022-07-26T00:54:04;18.70;99.90
36924;DHT22;22841;50.252;18.688;2022-07-26T00:56:34;18.70;1.00
36924;DHT22;22841;50.252;18.688;2022-07-26T00:59:00;18.70;99.90
36924;DHT22;22841;50.252;18.688;2022-07-26T01:01:26;18.70;99.90
36924;DHT22;22841;50.252;18.688;2022-07-26T01:03:53;18.60;99.90
36924;DHT22;22841;50.252;18.688;2022-07-26T01:06:20;18.50;99.90
36924;DHT22;22841;50.252;18.688;2022-07-26T01:08:46;18.60;99.90
36924;DHT22;22841;50.252;18.688;2022-07-26T01:11:12;18.60;99.90
36924;DHT22;22841;50.252;18.688;2022-07-26T01:13:49;18.50;99.90
36924;DHT22;22841;50.252;18.688;2022-07-26T01:16:16;18.50;80.30
36924;DHT22;22841;50.252;18.688;2022-07-26T01:18:42;18.60;99.90
36924;DHT22;22841;50.252;18.688;2022-07-26T01:21:10;18.60;99.90
36924;DHT22;22841;50.252;18.688;2022-07-26T01:23:37;18.50;99.90
36924;DHT22;22841;50.252;18.688;2022-07-26T01:26:04;18.40;50.20
36924;DHT22;22841;50.252;18.688;2022-07-26T01:28:33;18.40;99.90
36924;DHT22;22841;50.252;18.688;2022-07-26T01:31:00;18.50;1.00
36924;DHT22;22841;50.252;18.688;2022-07-26T01:33:26;18.60;1.00
36924;DHT22;22841;50.252;18.688;2022-07-26T01:35:53;18.40;1.00
36924;DHT22;22841;50.252;18.688;2022-07-26T01:38:19;18.40;99.90
36924;DHT22;22841;50.252;18.688;2022-07-26T01:40:45;18.50;99.90
36924;DHT22;22841;50.252;18.688;2022-07-26T01:43:11;18.50;1.00
36924;DHT22;22841;50.252;18.688;2022-07-26T01:45:37;18.40;51.00
36924;DHT22;22841;50.252;18.688;2022-07-26T01:48:03;18.50;99.90
36924;DHT22;22841;50.252;18.688;2022-07-26T01:50:29;18.30;1.00
36924;DHT22;22841;50.252;18.688;2022-07-26T01:52:55;18.40;1.00
36924;DHT22;22841;50.252;18.688;2022-07-26T01:55:21;18.40;99.90
36924;DHT22;22841;50.252;18.688;2022-07-26T01:57:48;18.40;1.00
36924;DHT22;22841;50.252;18.688;2022-07-26T02:00:14;18.40;99.90
36924;DHT22;22841;50.252;18.688;2022-07-26T02:02:40;18.40;1.00
36924;DHT22;22841;50.252;18.688;2022-07-26T02:05:06;18.40;1.00
36924;DHT22;22841;50.252;18.688;2022-07-26T02:07:38;18.30;99.90
36924;DHT22;22841;50.252;18.688;2022-07-26T02:10:06;18.30;8.80
36924;DHT22;22841;50.252;18.688;2022-07-26T02:12:32;18.20;99.90
36924;DHT22;22841;50.252;18.688;2022-07-26T02:14:59;18.30;91.10
36924;DHT22;22841;50.252;18.688;2022-07-26T02:17:25;18.30;1.00
36924;DHT22;22841;50.252;18.688;2022-07-26T02:19:51;18.30;99.90
36924;DHT22;22841;50.252;18.688;2022-07-26T02:22:18;18.40;99.90
36924;DHT22;22841;50.252;18.688;2022-07-26T02:24:45;18.40;99.90
36924;DHT22;22841;50.252;18.688;2022-07-26T02:27:12;18.40;99.90
36924;DHT22;22841;50.252;18.688;2022-07-26T02:29:39;18.40;99.90
36924;DHT22;22841;50.252;18.688;2022-07-26T02:32:05;18.30;99.90
36924;DHT22;22841;50.252;18.688;2022-07-26T02:34:32;18.30;1.00
36924;DHT22;22841;50.252;18.688;2022-07-26T02:36:58;18.20;99.90
36924;DHT22;22841;50.252;18.688;2022-07-26T02:39:25;18.10;99.90
36924;DHT22;22841;50.252;18.688;2022-07-26T02:41:53;18.10;1.00
36924;DHT22;22841;50.252;18.688;2022-07-26T02:44:20;18.10;1.00
36924;DHT22;22841;50.252;18.688;2022-07-26T02:46:46;18.00;92.10
36924;DHT22;22841;50.252;18.688;2022-07-26T02:49:12;18.10;1.00
36924;DHT22;22841;50.252;18.688;2022-07-26T02:51:38;18.00;39.30
36924;DHT22;22841;50.252;18.688;2022-07-26T02:54:05;18.00;37.40
36924;DHT22;22841;50.252;18.688;2022-07-26T02:56:31;17.90;99.90
36924;DHT22;22841;50.252;18.688;2022-07-26T02:58:57;17.90;99.90
36924;DHT22;22841;50.252;18.688;2022-07-26T03:01:23;17.90;99.90
36924;DHT22;22841;50.252;18.688;2022-07-26T03:03:50;17.80;99.90
36924;DHT22;22841;50.252;18.688;2022-07-26T03:06:17;18.00;99.90
36924;DHT22;22841;50.252;18.688;2022-07-26T03:08:43;18.00;99.90
36924;DHT22;22841;50.252;18.688;2022-07-26T03:11:09;18.10;99.90
36924;DHT22;22841;50.252;18.688;2022-07-26T03:13:35;18.10;70.90
36924;DHT22;22841;50.252;18.688;2022-07-26T03:16:02;18.10;87.60
36924;DHT22;22841;50.252;18.688;2022-07-26T03:18:28;18.20;9.60
36924;DHT22;22841;50.252;18.688;2022-07-26T03:20:54;18.20;1.00
36924;DHT22;22841;50.252;18.688;2022-07-26T03:23:20;18.30;99.90
36924;DHT22;22841;50.252;18.688;2022-07-26T03:25:46;18.20;1.90
36924;DHT22;22841;50.252;18.688;2022-07-26T03:28:13;18.30;1.00
36924;DHT22;22841;50.252;18.688;2022-07-26T03:30:39;18.20;91.60
36924;DHT22;22841;50.252;18.688;2022-07-26T03:33:05;18.30;1.00
36924;DHT22;22841;50.252;18.688;2022-07-26T03:35:31;18.20;99.90
36924;DHT22;22841;50.252;18.688;2022-07-26T03:37:57;18.10;99.90
36924;DHT22;22841;50.252;18.688;2022-07-26T03:40:23;18.10;99.90
36924;DHT22;22841;50.252;18.688;2022-07-26T03:42:50;18.10;99.90
36924;DHT22;22841;50.252;18.688;2022-07-26T03:45:16;18.10;99.90
36924;DHT22;22841;50.252;18.688;2022-07-26T03:47:42;18.10;99.90
36924;DHT22;22841;50.252;18.688;2022-07-26T03:50:09;18.20;99.90
36924;DHT22;22841;50.252;18.688;2022-07-26T03:52:35;18.30;99.90
36924;DHT22;22841;50.252;18.688;2022-07-26T03:55:01;18.30;99.90
36924;DHT22;22841;50.252;18.688;2022-07-26T03:57:50;18.30;99.90
36924;DHT22;22841;50.252;18.688;2022-07-26T04:00:16;18.30;99.90
36924;DHT22;22841;50.252;18.688;2022-07-26T04:02:43;18.40;99.90
36924;DHT22;22841;50.252;18.688;2022-07-26T04:05:09;18.30;99.90
36924;DHT22;22841;50.252;18.688;2022-07-26T04:07:45;18.40;99.90
36924;DHT22;22841;50.252;18.688;2022-07-26T04:10:12;18.50;99.90
36924;DHT22;22841;50.252;18.688;2022-07-26T04:12:40;18.60;99.90
36924;DHT22;22841;50.252;18.688;2022-07-26T04:15:06;18.60;99.90
36924;DHT22;22841;50.252;18.688;2022-07-26T04:17:39;18.70;99.90
36924;DHT22;22841;50.252;18.688;2022-07-26T04:20:07;18.80;99.90
36924;DHT22;22841;50.252;18.688;2022-07-26T04:22:35;18.80;99.90
36924;DHT22;22841;50.252;18.688;2022-07-26T04:25:02;18.90;99.90
36924;DHT22;22841;50.252;18.688;2022-07-26T04:27:29;19.00;99.90
36924;DHT22;22841;50.252;18.688;2022-07-26T04:29:55;19.00;99.90
36924;DHT22;22841;50.252;18.688;2022-07-26T04:32:21;19.10;44.70
36924;DHT22;22841;50.252;18.688;2022-07-26T04:34:48;19.10;81.80
36924;DHT22;22841;50.252;18.688;2022-07-26T04:37:14;19.20;1.00
36924;DHT22;22841;50.252;18.688;2022-07-26T04:39:40;19.20;5.50
36924;DHT22;22841;50.252;18.688;2022-07-26T04:42:06;19.20;61.80
36924;DHT22;22841;50.252;18.688;2022-07-26T04:44:32;19.30;99.90
36924;DHT22;22841;50.252;18.688;2022-07-26T04:46:58;19.30;78.40
36924;DHT22;22841;50.252;18.688;2022-07-26T04:49:24;19.40;87.80
36924;DHT22;22841;50.252;18.688;2022-07-26T04:51:50;19.50;99.90
36924;DHT22;22841;50.252;18.688;2022-07-26T04:54:16;19.70;99.90
36924;DHT22;22841;50.252;18.688;2022-07-26T04:56:46;19.70;27.90
36924;DHT22;22841;50.252;18.688;2022-07-26T04:59:12;19.70;22.90
36924;DHT22;22841;50.252;18.688;2022-07-26T05:01:39;19.80;99.90
36924;DHT22;22841;50.252;18.688;2022-07-26T05:04:05;20.00;99.90
36924;DHT22;22841;50.252;18.688;2022-07-26T05:06:31;20.10;1.00
36924;DHT22;22841;50.252;18.688;2022-07-26T05:08:58;20.30;99.90
36924;DHT22;22841;50.252;18.688;2022-07-26T05:11:24;20.40;1.00
36924;DHT22;22841;50.252;18.688;2022-07-26T05:13:50;20.50;99.90
36924;DHT22;22841;50.252;18.688;2022-07-26T05:16:16;20.70;1.00
36924;DHT22;22841;50.252;18.688;2022-07-26T05:18:42;20.80;1.00
36924;DHT22;22841;50.252;18.688;2022-07-26T05:21:08;21.00;99.90
36924;DHT22;22841;50.252;18.688;2022-07-26T05:23:35;21.10;99.90
36924;DHT22;22841;50.252;18.688;2022-07-26T05:26:01;21.30;99.90
36924;DHT22;22841;50.252;18.688;2022-07-26T05:28:27;21.40;1.00
36924;DHT22;22841;50.252;18.688;2022-07-26T05:30:53;21.60;99.90
36924;DHT22;22841;50.252;18.688;2022-07-26T05:33:19;21.60;99.90
36924;DHT22;22841;50.252;18.688;2022-07-26T05:35:45;21.70;99.90
36924;DHT22;22841;50.252;18.688;2022-07-26T05:38:11;21.70;1.00
36924;DHT22;22841;50.252;18.688;2022-07-26T05:40:37;21.70;99.90
36924;DHT22;22841;50.252;18.688;2022-07-26T05:43:03;21.80;99.90
36924;DHT22;22841;50.252;18.688;2022-07-26T05:45:29;21.90;1.00
36924;DHT22;22841;50.252;18.688;2022-07-26T05:47:55;21.90;71.30
36924;DHT22;22841;50.252;18.688;2022-07-26T05:50:21;21.80;1.00
36924;DHT22;22841;50.252;18.688;2022-07-26T05:52:47;21.80;99.90
36924;DHT22;22841;50.252;18.688;2022-07-26T05:55:13;21.80;1.00
36924;DHT22;22841;50.252;18.688;2022-07-26T05:57:40;21.80;99.90
36924;DHT22;22841;50.252;18.688;2022-07-26T06:00:13;21.80;99.90
36924;DHT22;22841;50.252;18.688;2022-07-26T06:02:39;21.80;31.40
36924;DHT22;22841;50.252;18.688;2022-07-26T06:05:06;21.80;52.80
36924;DHT22;22841;50.252;18.688;2022-07-26T06:07:32;21.80;99.90
36924;DHT22;22841;50.252;18.688;2022-07-26T06:09:58;21.80;99.90
36924;DHT22;22841;50.252;18.688;2022-07-26T06:12:24;21.80;99.90
36924;DHT22;22841;50.252;18.688;2022-07-26T06:14:50;21.60;1.00
36924;DHT22;22841;50.252;18.688;2022-07-26T06:17:17;21.60;1.00
36924;DHT22;22841;50.252;18.688;2022-07-26T06:19:43;21.50;99.90
36924;DHT22;22841;50.252;18.688;2022-07-26T06:22:09;21.20;99.90
36924;DHT22;22841;50.252;18.688;2022-07-26T06:24:35;21.10;99.90
36924;DHT22;22841;50.252;18.688;2022-07-26T06:27:01;21.00;1.00
36924;DHT22;22841;50.252;18.688;2022-07-26T06:29:28;21.00;1.00
36924;DHT22;22841;50.252;18.688;2022-07-26T06:31:54;21.10;1.00
36924;DHT22;22841;50.252;18.688;2022-07-26T06:34:20;20.90;1.00
36924;DHT22;22841;50.252;18.688;2022-07-26T06:36:46;20.90;1.00
36924;DHT22;22841;50.252;18.688;2022-07-26T06:39:12;20.70;10.10
36924;DHT22;22841;50.252;18.688;2022-07-26T06:41:38;20.60;23.30
36924;DHT22;22841;50.252;18.688;2022-07-26T06:44:04;20.50;40.60
36924;DHT22;22841;50.252;18.688;2022-07-26T06:46:30;20.50;46.30
36924;DHT22;22841;50.252;18.688;2022-07-26T06:48:56;20.40;56.70
36924;DHT22;22841;50.252;18.688;2022-07-26T06:51:23;20.30;63.10
36924;DHT22;22841;50.252;18.688;2022-07-26T06:53:49;20.20;76.10
36924;DHT22;22841;50.252;18.688;2022-07-26T06:56:18;20.00;86.50
36924;DHT22;22841;50.252;18.688;2022-07-26T06:58:44;19.90;93.80
36924;DHT22;22841;50.252;18.688;2022-07-26T07:01:10;19.80;97.80
36924;DHT22;22841;50.252;18.688;2022-07-26T07:03:36;19.70;99.90
36924;DHT22;22841;50.252;18.688;2022-07-26T07:06:03;19.60;99.90
36924;DHT22;22841;50.252;18.688;2022-07-26T07:08:29;19.40;99.90
36924;DHT22;22841;50.252;18.688;2022-07-26T07:10:55;19.30;99.90
36924;DHT22;22841;50.252;18.688;2022-07-26T07:13:21;19.20;99.90
36924;DHT22;22841;50.252;18.688;2022-07-26T07:15:48;19.10;99.90
36924;DHT22;22841;50.252;18.688;2022-07-26T07:18:14;19.00;99.90
36924;DHT22;22841;50.252;18.688;2022-07-26T07:20:40;18.90;99.90
36924;DHT22;22841;50.252;18.688;2022-07-26T07:23:06;18.90;99.90
36924;DHT22;22841;50.252;18.688;2022-07-26T07:25:32;18.80;99.90
36924;DHT22;22841;50.252;18.688;2022-07-26T07:27:59;18.80;99.90
36924;DHT22;22841;50.252;18.688;2022-07-26T07:30:25;18.70;99.90
36924;DHT22;22841;50.252;18.688;2022-07-26T07:32:52;18.70;99.90
36924;DHT22;22841;50.252;18.688;2022-07-26T07:35:19;18.60;99.90
36924;DHT22;22841;50.252;18.688;2022-07-26T07:37:45;18.60;99.90
36924;DHT22;22841;50.252;18.688;2022-07-26T07:40:11;18.60;99.90
36924;DHT22;22841;50.252;18.688;2022-07-26T07:42:37;18.60;99.90
36924;DHT22;22841;50.252;18.688;2022-07-26T07:45:04;18.60;99.90
36924;DHT22;22841;50.252;18.688;2022-07-26T07:47:33;18.60;99.90
36924;DHT22;22841;50.252;18.688;2022-07-26T07:50:00;18.60;99.90
36924;DHT22;22841;50.252;18.688;2022-07-26T07:52:26;18.60;99.90
36924;DHT22;22841;50.252;18.688;2022-07-26T07:54:52;18.60;99.90
36924;DHT22;22841;50.252;18.688;2022-07-26T07:57:18;18.60;99.90
36924;DHT22;22841;50.252;18.688;2022-07-26T07:59:45;18.60;99.90
36924;DHT22;22841;50.252;18.688;2022-07-26T08:02:11;18.60;99.90
36924;DHT22;22841;50.252;18.688;2022-07-26T08:04:40;18.60;99.90
36924;DHT22;22841;50.252;18.688;2022-07-26T08:07:06;18.50;99.90
36924;DHT22;22841;50.252;18.688;2022-07-26T08:09:32;18.50;99.90
36924;DHT22;22841;50.252;18.688;2022-07-26T08:11:58;18.50;99.90
36924;DHT22;22841;50.252;18.688;2022-07-26T08:14:24;18.40;99.90
36924;DHT22;22841;50.252;18.688;2022-07-26T08:16:50;18.40;99.90
36924;DHT22;22841;50.252;18.688;2022-07-26T08:19:17;18.50;99.90
36924;DHT22;22841;50.252;18.688;2022-07-26T08:21:43;18.40;99.90
36924;DHT22;22841;50.252;18.688;2022-07-26T08:24:11;18.40;99.90
36924;DHT22;22841;50.252;18.688;2022-07-26T08:26:37;18.40;99.90
36924;DHT22;22841;50.252;18.688;2022-07-26T08:29:03;18.40;99.90
36924;DHT22;22841;50.252;18.688;2022-07-26T08:31:29;18.40;99.90
36924;DHT22;22841;50.252;18.688;2022-07-26T08:33:55;18.40;99.90
36924;DHT22;22841;50.252;18.688;2022-07-26T08:36:22;18.40;99.90
36924;DHT22;22841;50.252;18.688;2022-07-26T08:38:48;18.40;99.90
36924;DHT22;22841;50.252;18.688;2022-07-26T08:41:16;18.30;99.90
36924;DHT22;22841;50.252;18.688;2022-07-26T08:43:45;18.40;99.90
36924;DHT22;22841;50.252;18.688;2022-07-26T08:46:11;18.30;99.90
36924;DHT22;22841;50.252;18.688;2022-07-26T08:48:38;18.40;99.90
36924;DHT22;22841;50.252;18.688;2022-07-26T08:51:08;18.30;99.90
36924;DHT22;22841;50.252;18.688;2022-07-26T08:53:38;18.40;99.90
36924;DHT22;22841;50.252;18.688;2022-07-26T08:56:04;18.30;99.90
36924;DHT22;22841;50.252;18.688;2022-07-26T08:58:33;18.20;99.90
36924;DHT22;22841;50.252;18.688;2022-07-26T09:01:10;18.30;99.90
36924;DHT22;22841;50.252;18.688;2022-07-26T09:03:38;18.30;99.90
36924;DHT22;22841;50.252;18.688;2022-07-26T09:08:36;18.30;99.90
36924;DHT22;22841;50.252;18.688;2022-07-26T09:14:00;18.40;99.90
36924;DHT22;22841;50.252;18.688;2022-07-26T09:16:27;18.40;99.90
36924;DHT22;22841;50.252;18.688;2022-07-26T09:18:54;18.50;99.90
36924;DHT22;22841;50.252;18.688;2022-07-26T09:21:30;18.50;99.90
36924;DHT22;22841;50.252;18.688;2022-07-26T09:23:57;18.40;99.90
36924;DHT22;22841;50.252;18.688;2022-07-26T09:26:24;18.40;99.90
36924;DHT22;22841;50.252;18.688;2022-07-26T09:29:10;18.40;99.90
36924;DHT22;22841;50.252;18.688;2022-07-26T09:31:37;18.30;99.90
36924;DHT22;22841;50.252;18.688;2022-07-26T09:34:05;18.50;99.90
36924;DHT22;22841;50.252;18.688;2022-07-26T09:36:31;18.50;99.90
36924;DHT22;22841;50.252;18.688;2022-07-26T09:39:00;18.40;99.90
36924;DHT22;22841;50.252;18.688;2022-07-26T09:41:33;18.50;99.90
36924;DHT22;22841;50.252;18.688;2022-07-26T09:44:05;18.50;99.90
36924;DHT22;22841;50.252;18.688;2022-07-26T09:46:32;18.50;99.90
36924;DHT22;22841;50.252;18.688;2022-07-26T09:49:20;18.50;99.90
36924;DHT22;22841;50.252;18.688;2022-07-26T09:51:49;18.50;99.90
36924;DHT22;22841;50.252;18.688;2022-07-26T09:54:32;18.50;99.90
36924;DHT22;22841;50.252;18.688;2022-07-26T09:56:59;18.50;99.90
36924;DHT22;22841;50.252;18.688;2022-07-26T09:59:26;18.40;99.90
36924;DHT22;22841;50.252;18.688;2022-07-26T10:01:54;18.30;99.90
36924;DHT22;22841;50.252;18.688;2022-07-26T10:04:20;18.20;99.90
36924;DHT22;22841;50.252;18.688;2022-07-26T10:06:47;18.20;99.90
36924;DHT22;22841;50.252;18.688;2022-07-26T10:09:14;18.20;99.90
36924;DHT22;22841;50.252;18.688;2022-07-26T10:11:46;18.10;99.90
36924;DHT22;22841;50.252;18.688;2022-07-26T10:16:59;18.00;99.90
36924;DHT22;22841;50.252;18.688;2022-07-26T10:19:41;18.00;99.90
36924;DHT22;22841;50.252;18.688;2022-07-26T10:22:28;18.00;99.90
36924;DHT22;22841;50.252;18.688;2022-07-26T10:27:48;18.00;99.90
36924;DHT22;22841;50.252;18.688;2022-07-26T10:35:37;17.90;99.90
36924;DHT22;22841;50.252;18.688;2022-07-26T10:38:29;17.90;99.90
36924;DHT22;22841;50.252;18.688;2022-07-26T10:41:19;17.80;99.90
36924;DHT22;22841;50.252;18.688;2022-07-26T10:47:10;17.60;99.90
36924;DHT22;22841;50.252;18.688;2022-07-26T10:49:57;17.60;99.90
36924;DHT22;22841;50.252;18.688;2022-07-26T10:52:28;17.50;99.90
36924;DHT22;22841;50.252;18.688;2022-07-26T10:57:35;17.60;99.90
36924;DHT22;22841;50.252;18.688;2022-07-26T11:00:07;17.60;99.90
36924;DHT22;22841;50.252;18.688;2022-07-26T11:02:33;17.70;99.90
36924;DHT22;22841;50.252;18.688;2022-07-26T11:05:03;17.70;99.90
36924;DHT22;22841;50.252;18.688;2022-07-26T11:07:30;17.70;99.90
36924;DHT22;22841;50.252;18.688;2022-07-26T11:10:00;17.80;99.90
36924;DHT22;22841;50.252;18.688;2022-07-26T11:12:26;17.80;99.90
36924;DHT22;22841;50.252;18.688;2022-07-26T11:14:52;17.90;99.90
36924;DHT22;22841;50.252;18.688;2022-07-26T11:19:49;18.00;99.90
36924;DHT22;22841;50.252;18.688;2022-07-26T11:22:15;18.00;99.90
36924;DHT22;22841;50.252;18.688;2022-07-26T11:24:41;18.00;99.90
36924;DHT22;22841;50.252;18.688;2022-07-26T11:27:07;18.00;99.90
36924;DHT22;22841;50.252;18.688;2022-07-26T11:29:34;18.00;99.90
36924;DHT22;22841;50.252;18.688;2022-07-26T11:32:01;18.10;99.90
36924;DHT22;22841;50.252;18.688;2022-07-26T11:34:29;18.20;99.90
36924;DHT22;22841;50.252;18.688;2022-07-26T11:36:57;18.20;99.90
36924;DHT22;22841;50.252;18.688;2022-07-26T11:39:28;18.20;99.90
36924;DHT22;22841;50.252;18.688;2022-07-26T11:41:59;18.30;99.90
36924;DHT22;22841;50.252;18.688;2022-07-26T11:44:25;18.30;99.90
36924;DHT22;22841;50.252;18.688;2022-07-26T11:46:52;18.40;99.90
36924;DHT22;22841;50.252;18.688;2022-07-26T11:49:20;18.50;99.90
36924;DHT22;22841;50.252;18.688;2022-07-26T11:54:20;18.30;99.90
36924;DHT22;22841;50.252;18.688;2022-07-26T11:59:25;18.30;99.90
36924;DHT22;22841;50.252;18.688;2022-07-26T12:01:52;18.40;99.90
36924;DHT22;22841;50.252;18.688;2022-07-26T12:04:33;18.40;99.90
36924;DHT22;22841;50.252;18.688;2022-07-26T12:07:00;18.40;99.90
36924;DHT22;22841;50.252;18.688;2022-07-26T12:09:40;18.50;99.90
36924;DHT22;22841;50.252;18.688;2022-07-26T12:12:09;18.50;99.90
36924;DHT22;22841;50.252;18.688;2022-07-26T12:14:43;18.40;99.90
36924;DHT22;22841;50.252;18.688;2022-07-26T12:17:19;18.30;99.90
36924;DHT22;22841;50.252;18.688;2022-07-26T12:19:45;18.20;99.90
36924;DHT22;22841;50.252;18.688;2022-07-26T12:22:19;18.20;99.90
36924;DHT22;22841;50.252;18.688;2022-07-26T12:24:54;18.20;99.90
36924;DHT22;22841;50.252;18.688;2022-07-26T12:27:31;18.20;99.90
36924;DHT22;22841;50.252;18.688;2022-07-26T12:35:05;18.30;99.90
36924;DHT22;22841;50.252;18.688;2022-07-26T12:37:33;18.40;99.90
36924;DHT22;22841;50.252;18.688;2022-07-26T12:42:31;18.40;99.90
36924;DHT22;22841;50.252;18.688;2022-07-26T12:44:59;18.40;99.90
36924;DHT22;22841;50.252;18.688;2022-07-26T12:47:26;18.40;99.90
36924;DHT22;22841;50.252;18.688;2022-07-26T12:49:53;18.50;99.90
36924;DHT22;22841;50.252;18.688;2022-07-26T12:52:21;18.50;99.90
36924;DHT22;22841;50.252;18.688;2022-07-26T12:54:50;18.60;99.90
36924;DHT22;22841;50.252;18.688;2022-07-26T12:57:17;18.60;99.90
36924;DHT22;22841;50.252;18.688;2022-07-26T12:59:45;18.70;99.90
36924;DHT22;22841;50.252;18.688;2022-07-26T13:02:11;18.70;99.90
36924;DHT22;22841;50.252;18.688;2022-07-26T13:04:37;18.70;99.90
36924;DHT22;22841;50.252;18.688;2022-07-26T13:07:04;18.60;99.90
36924;DHT22;22841;50.252;18.688;2022-07-26T13:09:31;18.70;99.90
36924;DHT22;22841;50.252;18.688;2022-07-26T13:12:01;18.70;99.90
36924;DHT22;22841;50.252;18.688;2022-07-26T13:14:28;18.70;99.90
36924;DHT22;22841;50.252;18.688;2022-07-26T13:16:54;18.70;99.90
36924;DHT22;22841;50.252;18.688;2022-07-26T13:19:20;18.70;99.90
36924;DHT22;22841;50.252;18.688;2022-07-26T13:21:46;18.80;99.90
36924;DHT22;22841;50.252;18.688;2022-07-26T13:24:12;18.70;99.90
36924;DHT22;22841;50.252;18.688;2022-07-26T13:26:39;18.80;99.90
36924;DHT22;22841;50.252;18.688;2022-07-26T13:29:05;18.70;99.90
36924;DHT22;22841;50.252;18.688;2022-07-26T13:31:31;18.80;99.90
36924;DHT22;22841;50.252;18.688;2022-07-26T13:33:58;18.90;99.90
36924;DHT22;22841;50.252;18.688;2022-07-26T13:36:25;18.90;99.90
36924;DHT22;22841;50.252;18.688;2022-07-26T13:38:51;19.00;99.90
36924;DHT22;22841;50.252;18.688;2022-07-26T13:41:17;19.00;99.90
36924;DHT22;22841;50.252;18.688;2022-07-26T13:43:43;19.10;99.90
36924;DHT22;22841;50.252;18.688;2022-07-26T13:46:11;19.10;99.90
36924;DHT22;22841;50.252;18.688;2022-07-26T13:48:37;19.10;99.90
36924;DHT22;22841;50.252;18.688;2022-07-26T13:51:03;19.10;99.90
36924;DHT22;22841;50.252;18.688;2022-07-26T13:53:33;19.00;99.90
36924;DHT22;22841;50.252;18.688;2022-07-26T13:55:59;19.10;99.90
36924;DHT22;22841;50.252;18.688;2022-07-26T13:58:25;19.10;99.90
36924;DHT22;22841;50.252;18.688;2022-07-26T14:00:51;19.10;99.90
36924;DHT22;22841;50.252;18.688;2022-07-26T14:03:17;19.00;99.90
36924;DHT22;22841;50.252;18.688;2022-07-26T14:05:43;19.00;99.90
36924;DHT22;22841;50.252;18.688;2022-07-26T14:08:09;18.90;99.90
36924;DHT22;22841;50.252;18.688;2022-07-26T14:10:35;18.90;99.90
36924;DHT22;22841;50.252;18.688;2022-07-26T14:13:08;19.00;99.90
36924;DHT22;22841;50.252;18.688;2022-07-26T14:15:34;19.00;99.90
36924;DHT22;22841;50.252;18.688;2022-07-26T14:18:01;19.00;99.90
36924;DHT22;22841;50.252;18.688;2022-07-26T14:20:27;18.90;99.90
36924;DHT22;22841;50.252;18.688;2022-07-26T14:22:53;19.00;99.90
36924;DHT22;22841;50.252;18.688;2022-07-26T14:25:22;19.00;99.90
36924;DHT22;22841;50.252;18.688;2022-07-26T14:27:49;19.00;99.90
36924;DHT22;22841;50.252;18.688;2022-07-26T14:30:15;19.00;99.90
36924;DHT22;22841;50.252;18.688;2022-07-26T14:32:42;18.90;99.90
36924;DHT22;22841;50.252;18.688;2022-07-26T14:35:08;19.00;99.90
36924;DHT22;22841;50.252;18.688;2022-07-26T14:37:35;19.00;99.90
36924;DHT22;22841;50.252;18.688;2022-07-26T14:40:02;19.00;99.90
36924;DHT22;22841;50.252;18.688;2022-07-26T14:42:29;19.10;99.90
36924;DHT22;22841;50.252;18.688;2022-07-26T14:44:55;19.00;99.90
36924;DHT22;22841;50.252;18.688;2022-07-26T14:47:21;19.00;99.90
36924;DHT22;22841;50.252;18.688;2022-07-26T14:49:47;19.00;99.90
36924;DHT22;22841;50.252;18.688;2022-07-26T14:52:14;19.00;99.90
36924;DHT22;22841;50.252;18.688;2022-07-26T14:54:41;19.10;99.90
36924;DHT22;22841;50.252;18.688;2022-07-26T14:57:07;19.00;99.90
36924;DHT22;22841;50.252;18.688;2022-07-26T14:59:33;18.90;99.90
36924;DHT22;22841;50.252;18.688;2022-07-26T15:01:59;18.90;99.90
36924;DHT22;22841;50.252;18.688;2022-07-26T15:04:25;19.00;99.90
36924;DHT22;22841;50.252;18.688;2022-07-26T15:06:51;19.00;99.90
36924;DHT22;22841;50.252;18.688;2022-07-26T15:09:17;19.10;99.90
36924;DHT22;22841;50.252;18.688;2022-07-26T15:11:44;19.20;99.90
36924;DHT22;22841;50.252;18.688;2022-07-26T15:14:10;19.30;99.90
36924;DHT22;22841;50.252;18.688;2022-07-26T15:16:36;19.50;99.90
36924;DHT22;22841;50.252;18.688;2022-07-26T15:19:02;19.50;99.90
36924;DHT22;22841;50.252;18.688;2022-07-26T15:21:28;19.60;99.90
36924;DHT22;22841;50.252;18.688;2022-07-26T15:23:54;19.70;99.90
36924;DHT22;22841;50.252;18.688;2022-07-26T15:26:20;19.60;99.90
36924;DHT22;22841;50.252;18.688;2022-07-26T15:28:46;19.70;99.90
36924;DHT22;22841;50.252;18.688;2022-07-26T15:31:12;19.60;99.90
36924;DHT22;22841;50.252;18.688;2022-07-26T15:33:38;19.60;99.90
36924;DHT22;22841;50.252;18.688;2022-07-26T15:36:05;19.60;99.90
36924;DHT22;22841;50.252;18.688;2022-07-26T15:38:31;19.60;99.90
36924;DHT22;22841;50.252;18.688;2022-07-26T15:40:57;19.70;99.90
36924;DHT22;22841;50.252;18.688;2022-07-26T15:43:24;19.70;99.90
36924;DHT22;22841;50.252;18.688;2022-07-26T15:45:50;19.80;99.90
36924;DHT22;22841;50.252;18.688;2022-07-26T15:48:19;19.90;99.90
36924;DHT22;22841;50.252;18.688;2022-07-26T15:50:48;19.90;99.90
36924;DHT22;22841;50.252;18.688;2022-07-26T15:53:14;20.00;99.90
36924;DHT22;22841;50.252;18.688;2022-07-26T15:55:42;19.80;99.90
36924;DHT22;22841;50.252;18.688;2022-07-26T15:58:08;19.70;99.90